sensor_id;sensor_type;location;lat;lon;timestamp;P1;durP1;ratioP1;P2;durP2;ratioP2
67456;SDS011;54319;52.038;4.640;2024-02-23T00:02:10;8.13;;;1.80;;
67456;SDS011;54319;52.038;4.640;2024-02-23T00:04:39;7.68;;;1.60;;
67456;SDS011;54319;52.038;4.640;2024-02-23T00:07:07;6.65;;;1.90;;
67456;SDS011;54319;52.038;4.640;2024-02-23T00:09:33;7.07;;;1.70;;
67456;SDS011;54319;52.038;4.640;2024-02-23T00:12:00;4.32;;;1.48;;
67456;SDS011;54319;52.038;4.640;2024-02-23T00:14:27;7.07;;;1.58;;
67456;SDS011;54319;52.038;4.640;2024-02-23T00:16:56;8.52;;;1.98;;
67456;SDS011;54319;52.038;4.640;2024-02-23T00:19:23;6.28;;;1.88;;
67456;SDS011;54319;52.038;4.640;2024-02-23T00:24:18;10.13;;;1.63;;
67456;SDS011;54319;52.038;4.640;2024-02-23T00:26:47;6.32;;;1.90;;
67456;SDS011;54319;52.038;4.640;2024-02-23T00:29:16;6.35;;;1.10;;
67456;SDS011;54319;52.038;4.640;2024-02-23T00:31:43;8.27;;;1.30;;
67456;SDS011;54319;52.038;4.640;2024-02-23T00:34:15;8.43;;;1.80;;
67456;SDS011;54319;52.038;4.640;2024-02-23T00:36:45;4.38;;;1.23;;
67456;SDS011;54319;52.038;4.640;2024-02-23T00:39:13;14.90;;;2.17;;
67456;SDS011;54319;52.038;4.640;2024-02-23T00:41:41;3.60;;;1.50;;
67456;SDS011;54319;52.038;4.640;2024-02-23T00:44:09;11.30;;;2.08;;
67456;SDS011;54319;52.038;4.640;2024-02-23T00:46:36;8.38;;;1.63;;
67456;SDS011;54319;52.038;4.640;2024-02-23T00:49:03;4.18;;;1.50;;
67456;SDS011;54319;52.038;4.640;2024-02-23T00:51:32;10.65;;;1.55;;
67456;SDS011;54319;52.038;4.640;2024-02-23T00:53:58;3.40;;;1.38;;
67456;SDS011;54319;52.038;4.640;2024-02-23T00:56:27;7.95;;;1.83;;
67456;SDS011;54319;52.038;4.640;2024-02-23T00:58:53;2.75;;;1.40;;
67456;SDS011;54319;52.038;4.640;2024-02-23T01:01:20;8.23;;;1.42;;
67456;SDS011;54319;52.038;4.640;2024-02-23T01:03:47;10.20;;;1.65;;
67456;SDS011;54319;52.038;4.640;2024-02-23T01:06:13;10.50;;;1.90;;
67456;SDS011;54319;52.038;4.640;2024-02-23T01:08:40;9.20;;;1.87;;
67456;SDS011;54319;52.038;4.640;2024-02-23T01:11:07;7.20;;;1.65;;
67456;SDS011;54319;52.038;4.640;2024-02-23T01:13:37;7.53;;;2.20;;
67456;SDS011;54319;52.038;4.640;2024-02-23T01:16:09;6.88;;;1.85;;
67456;SDS011;54319;52.038;4.640;2024-02-23T01:18:38;15.10;;;2.08;;
67456;SDS011;54319;52.038;4.640;2024-02-23T01:21:06;5.20;;;1.92;;
67456;SDS011;54319;52.038;4.640;2024-02-23T01:23:33;4.28;;;1.48;;
67456;SDS011;54319;52.038;4.640;2024-02-23T01:26:00;7.60;;;1.50;;
67456;SDS011;54319;52.038;4.640;2024-02-23T01:28:27;11.45;;;1.88;;
67456;SDS011;54319;52.038;4.640;2024-02-23T01:30:59;10.30;;;1.60;;
67456;SDS011;54319;52.038;4.640;2024-02-23T01:36:03;4.05;;;1.27;;
67456;SDS011;54319;52.038;4.640;2024-02-23T01:38:30;7.55;;;1.50;;
67456;SDS011;54319;52.038;4.640;2024-02-23T01:40:57;4.50;;;1.45;;
67456;SDS011;54319;52.038;4.640;2024-02-23T01:43:24;8.65;;;1.90;;
67456;SDS011;54319;52.038;4.640;2024-02-23T01:46:01;11.52;;;1.65;;
67456;SDS011;54319;52.038;4.640;2024-02-23T01:48:27;9.32;;;1.67;;
67456;SDS011;54319;52.038;4.640;2024-02-23T01:50:54;4.63;;;1.25;;
67456;SDS011;54319;52.038;4.640;2024-02-23T01:53:21;5.55;;;1.30;;
67456;SDS011;54319;52.038;4.640;2024-02-23T01:55:50;10.25;;;1.75;;
67456;SDS011;54319;52.038;4.640;2024-02-23T01:58:19;11.05;;;1.40;;
67456;SDS011;54319;52.038;4.640;2024-02-23T02:00:46;8.90;;;1.55;;
67456;SDS011;54319;52.038;4.640;2024-02-23T02:03:14;4.75;;;1.45;;
67456;SDS011;54319;52.038;4.640;2024-02-23T02:05:40;2.60;;;1.08;;
67456;SDS011;54319;52.038;4.640;2024-02-23T02:08:09;6.18;;;1.42;;
67456;SDS011;54319;52.038;4.640;2024-02-23T02:10:37;9.52;;;1.40;;
67456;SDS011;54319;52.038;4.640;2024-02-23T02:13:05;8.60;;;1.70;;
67456;SDS011;54319;52.038;4.640;2024-02-23T02:15:32;7.57;;;1.90;;
67456;SDS011;54319;52.038;4.640;2024-02-23T02:17:59;8.07;;;1.90;;
67456;SDS011;54319;52.038;4.640;2024-02-23T02:20:28;9.45;;;1.58;;
67456;SDS011;54319;52.038;4.640;2024-02-23T02:23:00;6.05;;;1.10;;
67456;SDS011;54319;52.038;4.640;2024-02-23T02:27:53;5.45;;;1.13;;
67456;SDS011;54319;52.038;4.640;2024-02-23T02:30:20;9.30;;;1.60;;
67456;SDS011;54319;52.038;4.640;2024-02-23T02:32:46;7.73;;;1.67;;
67456;SDS011;54319;52.038;4.640;2024-02-23T02:35:13;6.05;;;1.63;;
67456;SDS011;54319;52.038;4.640;2024-02-23T02:37:42;7.18;;;1.80;;
67456;SDS011;54319;52.038;4.640;2024-02-23T02:40:08;4.28;;;1.08;;
67456;SDS011;54319;52.038;4.640;2024-02-23T02:42:35;6.45;;;1.77;;
67456;SDS011;54319;52.038;4.640;2024-02-23T02:45:02;5.75;;;1.17;;
67456;SDS011;54319;52.038;4.640;2024-02-23T02:47:30;2.67;;;1.42;;
67456;SDS011;54319;52.038;4.640;2024-02-23T02:49:57;7.60;;;1.70;;
67456;SDS011;54319;52.038;4.640;2024-02-23T02:52:24;5.80;;;1.65;;
67456;SDS011;54319;52.038;4.640;2024-02-23T02:54:52;6.60;;;1.53;;
67456;SDS011;54319;52.038;4.640;2024-02-23T02:57:18;4.40;;;1.75;;
67456;SDS011;54319;52.038;4.640;2024-02-23T02:59:45;4.47;;;1.02;;
67456;SDS011;54319;52.038;4.640;2024-02-23T03:02:12;9.50;;;1.90;;
67456;SDS011;54319;52.038;4.640;2024-02-23T03:04:39;8.13;;;1.23;;
67456;SDS011;54319;52.038;4.640;2024-02-23T03:07:13;5.13;;;1.33;;
67456;SDS011;54319;52.038;4.640;2024-02-23T03:09:40;3.38;;;1.35;;
67456;SDS011;54319;52.038;4.640;2024-02-23T03:12:11;4.35;;;1.63;;
67456;SDS011;54319;52.038;4.640;2024-02-23T03:14:38;10.50;;;1.50;;
67456;SDS011;54319;52.038;4.640;2024-02-23T03:17:06;7.55;;;3.15;;
67456;SDS011;54319;52.038;4.640;2024-02-23T03:19:35;2.38;;;0.90;;
67456;SDS011;54319;52.038;4.640;2024-02-23T03:22:02;3.10;;;1.30;;
67456;SDS011;54319;52.038;4.640;2024-02-23T03:24:29;5.63;;;1.27;;
67456;SDS011;54319;52.038;4.640;2024-02-23T03:26:56;9.40;;;1.50;;
67456;SDS011;54319;52.038;4.640;2024-02-23T03:29:26;2.85;;;1.20;;
67456;SDS011;54319;52.038;4.640;2024-02-23T03:31:54;11.57;;;1.98;;
67456;SDS011;54319;52.038;4.640;2024-02-23T03:34:23;5.40;;;1.30;;
67456;SDS011;54319;52.038;4.640;2024-02-23T03:36:50;4.65;;;1.50;;
67456;SDS011;54319;52.038;4.640;2024-02-23T03:39:17;4.00;;;0.95;;
67456;SDS011;54319;52.038;4.640;2024-02-23T03:41:44;9.23;;;1.83;;
67456;SDS011;54319;52.038;4.640;2024-02-23T03:44:29;2.83;;;1.15;;
67456;SDS011;54319;52.038;4.640;2024-02-23T03:46:56;5.43;;;1.88;;
67456;SDS011;54319;52.038;4.640;2024-02-23T03:49:23;3.90;;;1.07;;
67456;SDS011;54319;52.038;4.640;2024-02-23T03:51:50;9.30;;;1.50;;
67456;SDS011;54319;52.038;4.640;2024-02-23T03:54:17;4.60;;;1.50;;
67456;SDS011;54319;52.038;4.640;2024-02-23T03:56:44;7.70;;;1.80;;
67456;SDS011;54319;52.038;4.640;2024-02-23T03:59:11;6.50;;;1.55;;
67456;SDS011;54319;52.038;4.640;2024-02-23T04:01:39;4.85;;;1.50;;
67456;SDS011;54319;52.038;4.640;2024-02-23T04:04:06;2.20;;;1.15;;
67456;SDS011;54319;52.038;4.640;2024-02-23T04:06:33;8.18;;;1.90;;
67456;SDS011;54319;52.038;4.640;2024-02-23T04:09:00;7.80;;;2.08;;
67456;SDS011;54319;52.038;4.640;2024-02-23T04:11:30;6.72;;;1.58;;
67456;SDS011;54319;52.038;4.640;2024-02-23T04:13:56;4.57;;;1.38;;
67456;SDS011;54319;52.038;4.640;2024-02-23T04:16:23;5.53;;;1.40;;
67456;SDS011;54319;52.038;4.640;2024-02-23T04:18:53;7.18;;;1.40;;
67456;SDS011;54319;52.038;4.640;2024-02-23T04:21:22;7.30;;;1.75;;
67456;SDS011;54319;52.038;4.640;2024-02-23T04:23:49;5.55;;;1.33;;
67456;SDS011;54319;52.038;4.640;2024-02-23T04:26:15;6.47;;;1.48;;
67456;SDS011;54319;52.038;4.640;2024-02-23T04:28:45;7.20;;;1.30;;
67456;SDS011;54319;52.038;4.640;2024-02-23T04:31:11;7.28;;;2.15;;
67456;SDS011;54319;52.038;4.640;2024-02-23T04:33:39;3.63;;;1.20;;
67456;SDS011;54319;52.038;4.640;2024-02-23T04:36:08;7.05;;;1.73;;
67456;SDS011;54319;52.038;4.640;2024-02-23T04:38:35;9.00;;;1.48;;
67456;SDS011;54319;52.038;4.640;2024-02-23T04:41:02;6.25;;;1.40;;
67456;SDS011;54319;52.038;4.640;2024-02-23T04:43:29;7.38;;;1.80;;
67456;SDS011;54319;52.038;4.640;2024-02-23T04:45:57;8.35;;;1.90;;
67456;SDS011;54319;52.038;4.640;2024-02-23T04:48:23;3.70;;;1.60;;
67456;SDS011;54319;52.038;4.640;2024-02-23T04:50:50;7.88;;;1.70;;
67456;SDS011;54319;52.038;4.640;2024-02-23T04:53:19;9.13;;;1.60;;
67456;SDS011;54319;52.038;4.640;2024-02-23T04:55:46;3.92;;;1.50;;
67456;SDS011;54319;52.038;4.640;2024-02-23T04:58:16;7.40;;;1.52;;
67456;SDS011;54319;52.038;4.640;2024-02-23T05:00:42;5.38;;;1.58;;
67456;SDS011;54319;52.038;4.640;2024-02-23T05:03:09;7.95;;;1.70;;
67456;SDS011;54319;52.038;4.640;2024-02-23T05:05:36;6.20;;;1.47;;
67456;SDS011;54319;52.038;4.640;2024-02-23T05:08:04;10.02;;;2.15;;
67456;SDS011;54319;52.038;4.640;2024-02-23T05:10:35;8.30;;;1.55;;
67456;SDS011;54319;52.038;4.640;2024-02-23T05:13:02;4.68;;;1.60;;
67456;SDS011;54319;52.038;4.640;2024-02-23T05:15:30;11.50;;;2.33;;
67456;SDS011;54319;52.038;4.640;2024-02-23T05:18:00;4.63;;;2.25;;
67456;SDS011;54319;52.038;4.640;2024-02-23T05:20:27;3.05;;;1.45;;
67456;SDS011;54319;52.038;4.640;2024-02-23T05:22:54;6.15;;;1.90;;
67456;SDS011;54319;52.038;4.640;2024-02-23T05:25:22;4.60;;;1.85;;
67456;SDS011;54319;52.038;4.640;2024-02-23T05:27:52;4.28;;;1.70;;
67456;SDS011;54319;52.038;4.640;2024-02-23T05:30:20;9.02;;;2.10;;
67456;SDS011;54319;52.038;4.640;2024-02-23T05:32:47;4.40;;;1.60;;
67456;SDS011;54319;52.038;4.640;2024-02-23T05:35:19;2.83;;;1.60;;
67456;SDS011;54319;52.038;4.640;2024-02-23T05:37:46;11.45;;;2.78;;
67456;SDS011;54319;52.038;4.640;2024-02-23T05:40:15;3.95;;;1.90;;
67456;SDS011;54319;52.038;4.640;2024-02-23T05:42:43;3.83;;;1.80;;
67456;SDS011;54319;52.038;4.640;2024-02-23T05:45:11;3.83;;;1.75;;
67456;SDS011;54319;52.038;4.640;2024-02-23T05:47:38;10.68;;;2.40;;
67456;SDS011;54319;52.038;4.640;2024-02-23T05:50:07;6.47;;;2.10;;
67456;SDS011;54319;52.038;4.640;2024-02-23T05:52:34;7.13;;;1.90;;
67456;SDS011;54319;52.038;4.640;2024-02-23T05:55:02;5.97;;;2.28;;
67456;SDS011;54319;52.038;4.640;2024-02-23T05:57:30;6.03;;;2.03;;
67456;SDS011;54319;52.038;4.640;2024-02-23T05:59:58;8.57;;;2.67;;
67456;SDS011;54319;52.038;4.640;2024-02-23T06:02:28;4.25;;;1.80;;
67456;SDS011;54319;52.038;4.640;2024-02-23T06:04:56;8.43;;;2.70;;
67456;SDS011;54319;52.038;4.640;2024-02-23T06:07:22;8.65;;;2.67;;
67456;SDS011;54319;52.038;4.640;2024-02-23T06:09:54;4.63;;;2.10;;
67456;SDS011;54319;52.038;4.640;2024-02-23T06:12:20;4.65;;;2.40;;
67456;SDS011;54319;52.038;4.640;2024-02-23T06:14:47;9.25;;;2.60;;
67456;SDS011;54319;52.038;4.640;2024-02-23T06:17:14;8.15;;;2.70;;
67456;SDS011;54319;52.038;4.640;2024-02-23T06:19:42;5.65;;;2.38;;
67456;SDS011;54319;52.038;4.640;2024-02-23T06:22:09;4.97;;;2.58;;
67456;SDS011;54319;52.038;4.640;2024-02-23T06:24:37;7.18;;;2.60;;
67456;SDS011;54319;52.038;4.640;2024-02-23T06:27:05;4.97;;;2.20;;
67456;SDS011;54319;52.038;4.640;2024-02-23T06:29:32;4.13;;;1.98;;
67456;SDS011;54319;52.038;4.640;2024-02-23T06:31:59;9.18;;;2.38;;
67456;SDS011;54319;52.038;4.640;2024-02-23T06:34:28;6.43;;;2.30;;
67456;SDS011;54319;52.038;4.640;2024-02-23T06:36:57;3.23;;;2.03;;
67456;SDS011;54319;52.038;4.640;2024-02-23T06:39:24;5.35;;;2.60;;
67456;SDS011;54319;52.038;4.640;2024-02-23T06:41:51;11.77;;;2.72;;
67456;SDS011;54319;52.038;4.640;2024-02-23T06:44:18;5.10;;;2.80;;
67456;SDS011;54319;52.038;4.640;2024-02-23T06:46:45;5.60;;;2.58;;
67456;SDS011;54319;52.038;4.640;2024-02-23T06:49:11;9.65;;;3.35;;
67456;SDS011;54319;52.038;4.640;2024-02-23T06:51:38;5.83;;;3.13;;
67456;SDS011;54319;52.038;4.640;2024-02-23T06:54:08;6.55;;;3.08;;
67456;SDS011;54319;52.038;4.640;2024-02-23T06:56:35;5.72;;;2.65;;
67456;SDS011;54319;52.038;4.640;2024-02-23T06:59:02;8.88;;;3.00;;
67456;SDS011;54319;52.038;4.640;2024-02-23T07:01:29;8.67;;;3.77;;
67456;SDS011;54319;52.038;4.640;2024-02-23T07:03:56;8.18;;;2.50;;
67456;SDS011;54319;52.038;4.640;2024-02-23T07:06:23;6.70;;;2.42;;
67456;SDS011;54319;52.038;4.640;2024-02-23T07:08:52;5.00;;;2.63;;
67456;SDS011;54319;52.038;4.640;2024-02-23T07:11:22;4.40;;;2.38;;
67456;SDS011;54319;52.038;4.640;2024-02-23T07:13:49;7.57;;;2.40;;
67456;SDS011;54319;52.038;4.640;2024-02-23T07:16:16;8.45;;;2.50;;
67456;SDS011;54319;52.038;4.640;2024-02-23T07:18:42;9.75;;;2.50;;
67456;SDS011;54319;52.038;4.640;2024-02-23T07:21:11;4.70;;;2.40;;
67456;SDS011;54319;52.038;4.640;2024-02-23T07:23:37;10.23;;;2.37;;
67456;SDS011;54319;52.038;4.640;2024-02-23T07:26:04;9.85;;;2.28;;
67456;SDS011;54319;52.038;4.640;2024-02-23T07:28:32;12.80;;;2.30;;
67456;SDS011;54319;52.038;4.640;2024-02-23T07:30:59;8.05;;;2.28;;
67456;SDS011;54319;52.038;4.640;2024-02-23T07:33:26;6.65;;;2.55;;
67456;SDS011;54319;52.038;4.640;2024-02-23T07:35:53;8.57;;;2.20;;
67456;SDS011;54319;52.038;4.640;2024-02-23T07:38:19;7.60;;;2.22;;
67456;SDS011;54319;52.038;4.640;2024-02-23T07:40:46;7.10;;;2.38;;
67456;SDS011;54319;52.038;4.640;2024-02-23T07:43:14;9.77;;;2.97;;
67456;SDS011;54319;52.038;4.640;2024-02-23T07:45:42;7.63;;;3.30;;
67456;SDS011;54319;52.038;4.640;2024-02-23T07:48:09;5.72;;;2.10;;
67456;SDS011;54319;52.038;4.640;2024-02-23T07:50:35;5.32;;;2.40;;
67456;SDS011;54319;52.038;4.640;2024-02-23T07:53:02;9.43;;;2.38;;
67456;SDS011;54319;52.038;4.640;2024-02-23T07:55:29;8.75;;;3.05;;
67456;SDS011;54319;52.038;4.640;2024-02-23T07:57:56;5.00;;;1.90;;
67456;SDS011;54319;52.038;4.640;2024-02-23T08:00:26;5.18;;;2.10;;
67456;SDS011;54319;52.038;4.640;2024-02-23T08:02:54;4.77;;;1.90;;
67456;SDS011;54319;52.038;4.640;2024-02-23T08:05:21;8.90;;;1.70;;
67456;SDS011;54319;52.038;4.640;2024-02-23T08:07:48;5.50;;;1.93;;
67456;SDS011;54319;52.038;4.640;2024-02-23T08:10:15;6.50;;;2.05;;
67456;SDS011;54319;52.038;4.640;2024-02-23T08:12:41;6.25;;;1.90;;
67456;SDS011;54319;52.038;4.640;2024-02-23T08:15:08;6.30;;;2.00;;
67456;SDS011;54319;52.038;4.640;2024-02-23T08:17:35;7.50;;;1.90;;
67456;SDS011;54319;52.038;4.640;2024-02-23T08:20:04;6.40;;;1.90;;
67456;SDS011;54319;52.038;4.640;2024-02-23T08:22:31;7.70;;;2.00;;
67456;SDS011;54319;52.038;4.640;2024-02-23T08:24:58;5.25;;;2.00;;
67456;SDS011;54319;52.038;4.640;2024-02-23T08:27:25;7.40;;;1.88;;
67456;SDS011;54319;52.038;4.640;2024-02-23T08:29:52;9.35;;;2.10;;
67456;SDS011;54319;52.038;4.640;2024-02-23T08:32:19;5.85;;;1.90;;
67456;SDS011;54319;52.038;4.640;2024-02-23T08:34:45;5.32;;;2.00;;
67456;SDS011;54319;52.038;4.640;2024-02-23T08:37:13;7.70;;;3.03;;
67456;SDS011;54319;52.038;4.640;2024-02-23T08:39:40;11.77;;;2.33;;
67456;SDS011;54319;52.038;4.640;2024-02-23T08:42:07;6.03;;;2.15;;
67456;SDS011;54319;52.038;4.640;2024-02-23T08:44:33;3.77;;;1.80;;
67456;SDS011;54319;52.038;4.640;2024-02-23T08:47:01;5.93;;;1.67;;
67456;SDS011;54319;52.038;4.640;2024-02-23T08:49:28;8.53;;;2.57;;
67456;SDS011;54319;52.038;4.640;2024-02-23T08:51:57;8.50;;;2.00;;
67456;SDS011;54319;52.038;4.640;2024-02-23T08:54:25;8.40;;;2.20;;
67456;SDS011;54319;52.038;4.640;2024-02-23T08:56:52;3.40;;;1.73;;
67456;SDS011;54319;52.038;4.640;2024-02-23T08:59:18;9.35;;;2.25;;
67456;SDS011;54319;52.038;4.640;2024-02-23T09:01:45;2.85;;;1.95;;
67456;SDS011;54319;52.038;4.640;2024-02-23T09:04:12;5.00;;;2.10;;
67456;SDS011;54319;52.038;4.640;2024-02-23T09:06:39;3.40;;;1.97;;
67456;SDS011;54319;52.038;4.640;2024-02-23T09:09:05;7.00;;;2.20;;
67456;SDS011;54319;52.038;4.640;2024-02-23T09:14:02;4.50;;;1.77;;
67456;SDS011;54319;52.038;4.640;2024-02-23T09:16:29;5.10;;;1.90;;
67456;SDS011;54319;52.038;4.640;2024-02-23T09:18:56;4.60;;;1.98;;
67456;SDS011;54319;52.038;4.640;2024-02-23T09:21:22;5.78;;;2.10;;
67456;SDS011;54319;52.038;4.640;2024-02-23T09:23:49;6.28;;;2.25;;
67456;SDS011;54319;52.038;4.640;2024-02-23T09:26:16;4.78;;;1.88;;
67456;SDS011;54319;52.038;4.640;2024-02-23T09:28:44;4.82;;;2.30;;
67456;SDS011;54319;52.038;4.640;2024-02-23T09:31:11;7.53;;;2.03;;
67456;SDS011;54319;52.038;4.640;2024-02-23T09:33:38;5.72;;;2.05;;
67456;SDS011;54319;52.038;4.640;2024-02-23T09:36:04;6.03;;;1.90;;
67456;SDS011;54319;52.038;4.640;2024-02-23T09:38:31;6.57;;;1.98;;
67456;SDS011;54319;52.038;4.640;2024-02-23T09:40:58;6.68;;;2.10;;
67456;SDS011;54319;52.038;4.640;2024-02-23T09:43:25;5.20;;;2.13;;
67456;SDS011;54319;52.038;4.640;2024-02-23T09:45:59;6.50;;;2.05;;
67456;SDS011;54319;52.038;4.640;2024-02-23T09:48:26;6.90;;;1.92;;
67456;SDS011;54319;52.038;4.640;2024-02-23T09:50:54;10.75;;;2.72;;
67456;SDS011;54319;52.038;4.640;2024-02-23T09:55:49;7.57;;;2.97;;
67456;SDS011;54319;52.038;4.640;2024-02-23T09:58:17;4.30;;;1.95;;
67456;SDS011;54319;52.038;4.640;2024-02-23T10:00:46;4.95;;;2.42;;
67456;SDS011;54319;52.038;4.640;2024-02-23T10:03:14;5.40;;;2.30;;
67456;SDS011;54319;52.038;4.640;2024-02-23T10:05:41;10.75;;;2.60;;
67456;SDS011;54319;52.038;4.640;2024-02-23T10:08:10;5.38;;;2.35;;
67456;SDS011;54319;52.038;4.640;2024-02-23T10:10:37;5.80;;;2.40;;
67456;SDS011;54319;52.038;4.640;2024-02-23T10:13:04;6.30;;;2.27;;
67456;SDS011;54319;52.038;4.640;2024-02-23T10:15:31;5.30;;;2.10;;
67456;SDS011;54319;52.038;4.640;2024-02-23T10:17:58;8.05;;;2.30;;
67456;SDS011;54319;52.038;4.640;2024-02-23T10:20:27;7.43;;;2.40;;
67456;SDS011;54319;52.038;4.640;2024-02-23T10:22:54;2.78;;;1.75;;
67456;SDS011;54319;52.038;4.640;2024-02-23T10:25:23;6.93;;;2.35;;
67456;SDS011;54319;52.038;4.640;2024-02-23T10:27:50;2.47;;;1.75;;
67456;SDS011;54319;52.038;4.640;2024-02-23T10:30:16;3.20;;;1.63;;
67456;SDS011;54319;52.038;4.640;2024-02-23T10:32:43;3.33;;;1.60;;
67456;SDS011;54319;52.038;4.640;2024-02-23T10:35:13;5.38;;;1.80;;
67456;SDS011;54319;52.038;4.640;2024-02-23T10:37:43;6.78;;;1.80;;
67456;SDS011;54319;52.038;4.640;2024-02-23T10:40:11;3.75;;;1.80;;
67456;SDS011;54319;52.038;4.640;2024-02-23T10:42:39;4.65;;;1.80;;
67456;SDS011;54319;52.038;4.640;2024-02-23T10:45:07;11.15;;;2.30;;
67456;SDS011;54319;52.038;4.640;2024-02-23T10:50:02;6.32;;;2.10;;
67456;SDS011;54319;52.038;4.640;2024-02-23T10:52:35;6.38;;;1.85;;
67456;SDS011;54319;52.038;4.640;2024-02-23T10:55:08;3.88;;;1.58;;
67456;SDS011;54319;52.038;4.640;2024-02-23T10:57:39;3.65;;;1.40;;
67456;SDS011;54319;52.038;4.640;2024-02-23T11:00:07;6.45;;;1.48;;
67456;SDS011;54319;52.038;4.640;2024-02-23T11:02:36;6.40;;;1.92;;
67456;SDS011;54319;52.038;4.640;2024-02-23T11:05:10;3.28;;;1.10;;
67456;SDS011;54319;52.038;4.640;2024-02-23T11:07:38;4.05;;;1.60;;
67456;SDS011;54319;52.038;4.640;2024-02-23T11:10:12;5.65;;;1.60;;
67456;SDS011;54319;52.038;4.640;2024-02-23T11:12:39;4.47;;;1.40;;
67456;SDS011;54319;52.038;4.640;2024-02-23T11:15:33;4.70;;;1.75;;
67456;SDS011;54319;52.038;4.640;2024-02-23T11:20:55;1.88;;;1.15;;
67456;SDS011;54319;52.038;4.640;2024-02-23T11:23:25;4.68;;;1.60;;
67456;SDS011;54319;52.038;4.640;2024-02-23T11:26:00;5.30;;;1.10;;
67456;SDS011;54319;52.038;4.640;2024-02-23T11:28:31;3.95;;;1.52;;
67456;SDS011;54319;52.038;4.640;2024-02-23T11:30:59;5.85;;;1.27;;
67456;SDS011;54319;52.038;4.640;2024-02-23T11:33:27;5.07;;;1.50;;
67456;SDS011;54319;52.038;4.640;2024-02-23T11:36:04;3.65;;;1.30;;
67456;SDS011;54319;52.038;4.640;2024-02-23T11:38:33;6.60;;;1.80;;
67456;SDS011;54319;52.038;4.640;2024-02-23T11:41:02;2.95;;;1.30;;
67456;SDS011;54319;52.038;4.640;2024-02-23T11:43:29;2.70;;;1.02;;
67456;SDS011;54319;52.038;4.640;2024-02-23T11:45:57;3.42;;;1.50;;
67456;SDS011;54319;52.038;4.640;2024-02-23T11:48:24;4.30;;;1.23;;
67456;SDS011;54319;52.038;4.640;2024-02-23T11:50:51;4.70;;;1.48;;
67456;SDS011;54319;52.038;4.640;2024-02-23T11:53:18;1.98;;;1.00;;
67456;SDS011;54319;52.038;4.640;2024-02-23T11:55:47;2.55;;;1.08;;
67456;SDS011;54319;52.038;4.640;2024-02-23T11:58:16;2.22;;;1.35;;
67456;SDS011;54319;52.038;4.640;2024-02-23T12:00:46;2.55;;;1.20;;
67456;SDS011;54319;52.038;4.640;2024-02-23T12:03:12;5.27;;;1.60;;
67456;SDS011;54319;52.038;4.640;2024-02-23T12:05:40;4.70;;;1.65;;
67456;SDS011;54319;52.038;4.640;2024-02-23T12:08:07;1.53;;;1.17;;
67456;SDS011;54319;52.038;4.640;2024-02-23T12:10:33;4.80;;;1.13;;
67456;SDS011;54319;52.038;4.640;2024-02-23T12:13:02;3.83;;;1.40;;
67456;SDS011;54319;52.038;4.640;2024-02-23T12:15:30;3.20;;;1.63;;
67456;SDS011;54319;52.038;4.640;2024-02-23T12:17:59;5.82;;;1.63;;
67456;SDS011;54319;52.038;4.640;2024-02-23T12:20:26;1.80;;;1.25;;
67456;SDS011;54319;52.038;4.640;2024-02-23T12:22:54;3.80;;;1.50;;
67456;SDS011;54319;52.038;4.640;2024-02-23T12:25:22;10.05;;;1.60;;
67456;SDS011;54319;52.038;4.640;2024-02-23T12:27:53;5.78;;;1.40;;
67456;SDS011;54319;52.038;4.640;2024-02-23T12:30:20;3.05;;;1.20;;
67456;SDS011;54319;52.038;4.640;2024-02-23T12:32:49;5.53;;;1.45;;
67456;SDS011;54319;52.038;4.640;2024-02-23T12:35:19;5.75;;;1.52;;
67456;SDS011;54319;52.038;4.640;2024-02-23T12:37:45;5.82;;;1.30;;
67456;SDS011;54319;52.038;4.640;2024-02-23T12:40:13;3.67;;;1.25;;
67456;SDS011;54319;52.038;4.640;2024-02-23T12:42:40;3.70;;;1.30;;
67456;SDS011;54319;52.038;4.640;2024-02-23T12:45:08;6.40;;;1.23;;
67456;SDS011;54319;52.038;4.640;2024-02-23T12:47:36;4.85;;;1.35;;
67456;SDS011;54319;52.038;4.640;2024-02-23T12:50:06;3.10;;;1.33;;
67456;SDS011;54319;52.038;4.640;2024-02-23T12:52:35;4.55;;;1.52;;
67456;SDS011;54319;52.038;4.640;2024-02-23T12:55:01;1.73;;;1.50;;
67456;SDS011;54319;52.038;4.640;2024-02-23T12:57:28;4.25;;;1.55;;
67456;SDS011;54319;52.038;4.640;2024-02-23T12:59:55;3.20;;;1.52;;
67456;SDS011;54319;52.038;4.640;2024-02-23T13:02:23;4.13;;;1.48;;
67456;SDS011;54319;52.038;4.640;2024-02-23T13:04:49;7.47;;;1.50;;
67456;SDS011;54319;52.038;4.640;2024-02-23T13:07:17;3.70;;;1.65;;
67456;SDS011;54319;52.038;4.640;2024-02-23T13:09:44;1.98;;;1.23;;
67456;SDS011;54319;52.038;4.640;2024-02-23T13:12:11;3.63;;;1.40;;
67456;SDS011;54319;52.038;4.640;2024-02-23T13:14:38;3.77;;;1.47;;
67456;SDS011;54319;52.038;4.640;2024-02-23T13:17:05;1.30;;;1.20;;
67456;SDS011;54319;52.038;4.640;2024-02-23T13:19:31;2.65;;;1.20;;
67456;SDS011;54319;52.038;4.640;2024-02-23T13:21:58;1.27;;;1.00;;
67456;SDS011;54319;52.038;4.640;2024-02-23T13:24:27;5.25;;;1.30;;
67456;SDS011;54319;52.038;4.640;2024-02-23T13:26:54;4.55;;;1.30;;
67456;SDS011;54319;52.038;4.640;2024-02-23T13:29:21;2.95;;;0.98;;
67456;SDS011;54319;52.038;4.640;2024-02-23T13:31:47;4.82;;;1.60;;
67456;SDS011;54319;52.038;4.640;2024-02-23T13:34:14;1.40;;;0.80;;
67456;SDS011;54319;52.038;4.640;2024-02-23T13:36:42;2.28;;;0.90;;
67456;SDS011;54319;52.038;4.640;2024-02-23T13:39:09;2.00;;;1.10;;
67456;SDS011;54319;52.038;4.640;2024-02-23T13:41:37;1.17;;;0.90;;
67456;SDS011;54319;52.038;4.640;2024-02-23T13:44:04;1.58;;;0.77;;
67456;SDS011;54319;52.038;4.640;2024-02-23T13:46:31;0.82;;;0.80;;
67456;SDS011;54319;52.038;4.640;2024-02-23T13:49:04;1.77;;;0.80;;
67456;SDS011;54319;52.038;4.640;2024-02-23T13:51:32;1.77;;;1.00;;
67456;SDS011;54319;52.038;4.640;2024-02-23T13:53:59;3.22;;;1.10;;
67456;SDS011;54319;52.038;4.640;2024-02-23T13:56:26;1.92;;;1.05;;
67456;SDS011;54319;52.038;4.640;2024-02-23T13:58:54;3.23;;;1.10;;
67456;SDS011;54319;52.038;4.640;2024-02-23T14:01:20;0.80;;;0.75;;
67456;SDS011;54319;52.038;4.640;2024-02-23T14:03:47;1.13;;;0.90;;
67456;SDS011;54319;52.038;4.640;2024-02-23T14:06:14;3.38;;;1.05;;
67456;SDS011;54319;52.038;4.640;2024-02-23T14:08:40;2.28;;;0.75;;
67456;SDS011;54319;52.038;4.640;2024-02-23T14:11:09;1.17;;;0.80;;
67456;SDS011;54319;52.038;4.640;2024-02-23T14:13:36;0.77;;;0.75;;
67456;SDS011;54319;52.038;4.640;2024-02-23T14:16:04;0.80;;;0.80;;
67456;SDS011;54319;52.038;4.640;2024-02-23T14:18:31;2.78;;;0.90;;
67456;SDS011;54319;52.038;4.640;2024-02-23T14:21:02;1.48;;;1.00;;
67456;SDS011;54319;52.038;4.640;2024-02-23T14:23:30;2.95;;;1.13;;
67456;SDS011;54319;52.038;4.640;2024-02-23T14:25:56;1.45;;;1.10;;
67456;SDS011;54319;52.038;4.640;2024-02-23T14:28:23;1.30;;;1.20;;
67456;SDS011;54319;52.038;4.640;2024-02-23T14:30:49;1.40;;;1.13;;
67456;SDS011;54319;52.038;4.640;2024-02-23T14:33:19;1.35;;;1.08;;
67456;SDS011;54319;52.038;4.640;2024-02-23T14:35:46;1.73;;;1.25;;
67456;SDS011;54319;52.038;4.640;2024-02-23T14:38:15;1.25;;;1.15;;
67456;SDS011;54319;52.038;4.640;2024-02-23T14:40:42;2.35;;;1.17;;
67456;SDS011;54319;52.038;4.640;2024-02-23T14:43:08;2.10;;;1.10;;
67456;SDS011;54319;52.038;4.640;2024-02-23T14:45:35;2.10;;;1.13;;
67456;SDS011;54319;52.038;4.640;2024-02-23T14:48:02;0.90;;;0.90;;
67456;SDS011;54319;52.038;4.640;2024-02-23T14:50:30;2.28;;;1.20;;
67456;SDS011;54319;52.038;4.640;2024-02-23T14:52:57;4.13;;;1.45;;
67456;SDS011;54319;52.038;4.640;2024-02-23T14:55:24;5.33;;;1.20;;
67456;SDS011;54319;52.038;4.640;2024-02-23T14:57:50;2.03;;;1.00;;
67456;SDS011;54319;52.038;4.640;2024-02-23T15:00:17;1.77;;;1.08;;
67456;SDS011;54319;52.038;4.640;2024-02-23T15:02:44;3.90;;;1.30;;
67456;SDS011;54319;52.038;4.640;2024-02-23T15:05:11;1.13;;;1.05;;
67456;SDS011;54319;52.038;4.640;2024-02-23T15:07:39;1.02;;;1.02;;